Terminal Aerodrome Forecast
Issued by NWS

Home | Current Version | Previous Version | Text Only | Print | Product List | Glossary On
Versions: 1 2 3 4 5 6 7 8 9 10 11 12 13 14 15 16 17 18 19 20 21
033
FTUS43 KSGF 021120
TAFJLN
TAF
KJLN 021120Z 0212/0312 36006KT P6SM OVC025
     FM021300 34006KT P6SM OVC020
     FM021900 31008KT P6SM OVC035
     FM022300 34010KT P6SM OVC070
     FM030200 34005KT P6SM SCT120=

USA.gov is the U.S. government's official web portal to all federal, state and local government web resources and services.